Hlavní strana
METAR-TAF:

METAR-TAF

Letiště :

Letiště Brusel

Brusel, Belgie

zeměpisná šířka: 50-54N, zeměpisná délka: 004-32E, výška: 55 m

Aktuální stav počasí

Zpráva byla vytvořena před 28 minutami, v 11:50 UTC
Severovýchodní vítr 7 kt, proměnlivý mezi severoseverovýchodním a východním
Teplota 7°C
Vlhkost vzduchu 76%
Tlak 1032 hPa
Viditelnost: 7000 m
Skoro jasno ve výšce 900 ft

METAR: EBBR 011150Z 05007KT 030V100 7000 FEW009 07/03 Q1032 NOSIG

Čas: 13:18 (12:18 UTC)

Předpověď počasí

Zpráva byla vytvořena před 1 hodinou a 7 minutami, v 11:11 UTC
Předpověď platná od 01 v 12 UTC do 02 v 18 UTC
Východoseverovýchodní vítr 7 kt
Viditelnost 10 km a více
Žádná oblačnost pod 1500 m, nevyskytují se cumulonimby.
Dočasný
od 02 v 03 UTC do 02 v 07 UTC
Viditelnost: 3000 m
kouřmo

TAF: EBBR 011111Z 0112/0218 07007KT CAVOK TEMPO 0203/0207 3000 BR

Stav a předpovědi počasí z více než 4 000 letišť (zprávy METAR a TAF).

Červené a žluté tečky na mapě představují dostupné meteorologické stanice.

Když kurzor umístíte na tečku, zobrazí se název stanice.

Pak kliknutím zobrazíte stav a předpověď počasí.

Chcete-li změnit mapu, kliknutím na zelené tlačítko se znaménkem +mapu přiblížíte, kliknutím na zelené tlačítko se znaménkem – mapu oddálíte a kliknutím na zelené šipky přejdete na sousední mapy.


METAR-TAF: